createdAt,value
2022-10-05T00:00:05.571Z,14.94
2022-10-05T00:02:17.654Z,14.97
2022-10-05T00:04:24.031Z,14.97
2022-10-05T00:06:30.335Z,14.99
2022-10-05T00:08:36.001Z,15.00
2022-10-05T00:10:43.079Z,15.01
2022-10-05T00:12:48.059Z,15.01
2022-10-05T00:14:54.055Z,15.01
2022-10-05T00:16:58.400Z,15.00
2022-10-05T00:19:02.248Z,14.98
2022-10-05T00:21:18.501Z,14.96
2022-10-05T00:23:26.950Z,14.95
2022-10-05T00:25:31.118Z,14.95
2022-10-05T00:27:39.595Z,14.94
2022-10-05T00:29:43.247Z,14.92
2022-10-05T00:31:47.040Z,14.89
2022-10-05T00:33:51.522Z,14.89
2022-10-05T00:35:55.313Z,14.84
2022-10-05T00:37:59.696Z,14.76
2022-10-05T00:40:04.303Z,14.68
2022-10-05T00:42:32.871Z,14.60
2022-10-05T00:44:44.788Z,14.54
2022-10-05T00:46:58.425Z,14.49
2022-10-05T00:49:10.521Z,14.43
2022-10-05T00:51:24.808Z,14.38
2022-10-05T00:53:42.858Z,14.33
2022-10-05T00:55:59.237Z,14.29
2022-10-05T00:58:16.339Z,14.27
2022-10-05T01:00:25.010Z,14.25
2022-10-05T01:02:37.092Z,14.23
2022-10-05T01:04:49.327Z,14.22
2022-10-05T01:07:07.186Z,14.22
2022-10-05T01:09:20.270Z,14.21
2022-10-05T01:11:31.435Z,14.21
2022-10-05T01:13:46.173Z,14.20
2022-10-05T01:15:56.897Z,14.19
2022-10-05T01:18:09.085Z,14.17
2022-10-05T01:20:34.079Z,14.16
2022-10-05T01:22:53.915Z,14.14
2022-10-05T01:25:14.066Z,14.11
2022-10-05T01:27:32.299Z,14.08
2022-10-05T01:29:42.369Z,14.06
2022-10-05T01:31:56.267Z,14.04
2022-10-05T01:34:11.604Z,14.02
2022-10-05T01:36:23.143Z,14.00
2022-10-05T01:38:40.968Z,13.97
2022-10-05T01:40:56.267Z,13.88
2022-10-05T01:43:09.875Z,13.75
2022-10-05T01:45:20.533Z,13.63
2022-10-05T01:47:32.672Z,13.52
2022-10-05T01:49:40.079Z,13.43
2022-10-05T01:51:55.815Z,13.35
2022-10-05T01:54:08.669Z,13.27
2022-10-05T01:56:20.773Z,13.23
2022-10-05T01:58:35.830Z,13.17
2022-10-05T02:00:47.155Z,13.16
2022-10-05T02:02:54.151Z,13.15
2022-10-05T02:05:08.587Z,13.15
2022-10-05T02:07:18.343Z,13.12
2022-10-05T02:09:26.680Z,13.10
2022-10-05T02:11:30.749Z,13.08
2022-10-05T02:13:41.405Z,13.08
2022-10-05T02:15:49.933Z,13.08
2022-10-05T02:17:59.048Z,13.08
2022-10-05T02:20:05.522Z,13.06
2022-10-05T02:22:13.009Z,13.06
2022-10-05T02:24:24.586Z,13.07
2022-10-05T02:26:29.156Z,13.05
2022-10-05T02:28:40.019Z,13.05
2022-10-05T02:30:48.909Z,13.04
2022-10-05T02:32:58.076Z,13.05
2022-10-05T02:35:06.112Z,13.04
2022-10-05T02:37:35.748Z,13.04
2022-10-05T02:39:48.810Z,13.04
2022-10-05T02:42:01.741Z,13.04
2022-10-05T02:44:15.020Z,13.04
2022-10-05T02:46:23.074Z,13.03
2022-10-05T02:48:37.950Z,13.03
2022-10-05T02:50:50.780Z,12.99
2022-10-05T02:53:05.684Z,12.92
2022-10-05T02:55:15.612Z,12.88
2022-10-05T02:57:28.709Z,12.82
2022-10-05T02:59:39.315Z,12.77
2022-10-05T03:01:50.610Z,12.71
2022-10-05T03:04:03.879Z,12.68
2022-10-05T03:06:15.524Z,12.65
2022-10-05T03:08:23.321Z,12.62
2022-10-05T03:10:35.969Z,12.57
2022-10-05T03:12:49.358Z,12.51
2022-10-05T03:15:08.743Z,12.48
2022-10-05T03:17:17.244Z,12.46
2022-10-05T03:19:40.986Z,12.43
2022-10-05T03:21:54.280Z,12.39
2022-10-05T03:24:09.762Z,12.36
2022-10-05T03:26:34.966Z,12.33
2022-10-05T03:28:51.031Z,12.28
2022-10-05T03:31:01.494Z,12.24
2022-10-05T03:33:12.992Z,12.16
2022-10-05T03:35:23.815Z,12.12
2022-10-05T03:37:36.124Z,12.08
2022-10-05T03:39:46.466Z,12.02
2022-10-05T03:41:56.570Z,11.97
2022-10-05T03:44:27.721Z,11.91
2022-10-05T03:46:46.301Z,11.84
2022-10-05T03:48:54.780Z,11.81
2022-10-05T03:51:07.418Z,11.74
2022-10-05T03:53:19.295Z,11.69
2022-10-05T03:55:31.558Z,11.65
2022-10-05T03:57:40.036Z,11.61
2022-10-05T03:59:53.832Z,11.57
2022-10-05T04:02:03.477Z,11.57
2022-10-05T04:04:12.689Z,11.56
2022-10-05T04:06:20.593Z,11.55
2022-10-05T04:08:34.051Z,11.51
2022-10-05T04:10:44.536Z,11.47
2022-10-05T04:12:53.768Z,11.43
2022-10-05T04:15:02.325Z,11.41
2022-10-05T04:17:13.216Z,11.39
2022-10-05T04:19:22.837Z,11.38
2022-10-05T04:21:31.425Z,11.36
2022-10-05T04:23:43.949Z,11.37
2022-10-05T04:25:53.093Z,11.36
2022-10-05T04:28:05.765Z,11.34
2022-10-05T04:30:14.386Z,11.33
2022-10-05T04:32:36.727Z,11.31
2022-10-05T04:34:55.130Z,11.31
2022-10-05T04:37:04.325Z,11.30
2022-10-05T04:39:21.119Z,11.30
2022-10-05T04:41:44.355Z,11.28
2022-10-05T04:43:58.867Z,11.27
2022-10-05T04:46:15.177Z,11.25
2022-10-05T04:48:45.892Z,11.24
2022-10-05T04:51:02.574Z,11.24
2022-10-05T04:53:14.685Z,11.25
2022-10-05T04:55:29.654Z,11.26
2022-10-05T04:57:41.806Z,11.26
2022-10-05T05:00:09.947Z,11.25
2022-10-05T05:02:24.494Z,11.27
2022-10-05T05:05:00.691Z,11.28
2022-10-05T05:07:18.178Z,11.28
2022-10-05T05:09:56.947Z,11.28
2022-10-05T05:12:14.204Z,11.30
2022-10-05T05:14:48.010Z,11.27
2022-10-05T05:17:02.785Z,11.21
2022-10-05T05:19:34.878Z,11.13
2022-10-05T05:21:46.322Z,11.09
2022-10-05T05:23:55.250Z,11.06
2022-10-05T05:26:06.668Z,11.03
2022-10-05T05:28:24.595Z,10.99
2022-10-05T05:30:37.044Z,10.97
2022-10-05T05:32:48.031Z,10.94
2022-10-05T05:35:04.772Z,10.90
2022-10-05T05:37:17.009Z,10.89
2022-10-05T05:39:27.425Z,10.87
2022-10-05T05:41:38.880Z,10.86
2022-10-05T05:44:04.474Z,10.86
2022-10-05T05:46:15.891Z,10.87
2022-10-05T05:48:25.744Z,10.86
2022-10-05T05:50:48.311Z,10.87
2022-10-05T05:52:58.253Z,10.88
2022-10-05T05:55:09.643Z,10.89
2022-10-05T05:57:16.655Z,10.88
2022-10-05T05:59:27.332Z,10.88
2022-10-05T06:01:39.569Z,10.90
2022-10-05T06:03:54.241Z,10.90
2022-10-05T06:06:02.038Z,10.89
2022-10-05T06:08:13.701Z,10.89
2022-10-05T06:10:23.679Z,10.91
2022-10-05T06:12:40.598Z,10.91
2022-10-05T06:14:49.058Z,10.92
2022-10-05T06:16:56.691Z,10.92
2022-10-05T06:19:13.525Z,10.93
2022-10-05T06:21:24.231Z,10.94
2022-10-05T06:23:35.523Z,10.95
2022-10-05T06:25:51.173Z,10.96
2022-10-05T06:28:10.887Z,10.98
2022-10-05T06:30:18.923Z,11.00
2022-10-05T06:32:32.597Z,11.02
2022-10-05T06:34:55.184Z,11.03
2022-10-05T06:37:02.264Z,11.04
2022-10-05T06:39:44.427Z,11.08
2022-10-05T06:42:04.759Z,11.09
2022-10-05T06:44:42.981Z,11.12
2022-10-05T06:47:20.883Z,11.13
2022-10-05T06:49:49.407Z,11.13
2022-10-05T06:52:27.107Z,11.11
2022-10-05T06:54:44.067Z,11.10
2022-10-05T06:56:57.499Z,11.08
2022-10-05T06:59:11.122Z,11.07
2022-10-05T07:01:25.060Z,11.08
2022-10-05T07:03:37.618Z,11.08
2022-10-05T07:05:59.707Z,11.08
2022-10-05T07:08:11.365Z,11.08
2022-10-05T07:10:27.537Z,11.07
2022-10-05T07:12:57.302Z,11.07
2022-10-05T07:15:26.026Z,11.06
2022-10-05T07:17:45.753Z,11.05
2022-10-05T07:19:59.617Z,11.03
2022-10-05T07:22:40.158Z,11.03
2022-10-05T07:24:50.799Z,11.02
2022-10-05T07:27:11.115Z,11.03
2022-10-05T07:29:24.713Z,11.01
2022-10-05T07:31:34.694Z,11.00
2022-10-05T07:33:47.690Z,11.00
2022-10-05T07:36:15.547Z,11.01
2022-10-05T07:38:32.394Z,11.01
2022-10-05T07:40:43.080Z,11.04
2022-10-05T07:42:56.607Z,11.05
2022-10-05T07:45:12.188Z,11.11
2022-10-05T07:47:25.598Z,11.12
2022-10-05T07:49:39.171Z,11.16
2022-10-05T07:51:46.892Z,11.18
2022-10-05T07:54:00.360Z,11.23
2022-10-05T07:56:11.555Z,11.26
2022-10-05T07:58:23.223Z,11.29
2022-10-05T08:00:47.056Z,11.32
2022-10-05T08:02:55.204Z,11.34
2022-10-05T08:05:03.972Z,11.37
2022-10-05T08:07:14.364Z,11.40
2022-10-05T08:09:41.932Z,11.43
2022-10-05T08:11:54.855Z,11.46
2022-10-05T08:14:06.879Z,11.44
2022-10-05T08:16:14.945Z,11.46
2022-10-05T08:18:36.361Z,11.46
2022-10-05T08:20:46.322Z,11.46
2022-10-05T08:22:59.595Z,11.46
2022-10-05T08:25:05.236Z,11.48
2022-10-05T08:27:17.220Z,11.47
2022-10-05T08:29:28.967Z,11.48
2022-10-05T08:31:38.795Z,11.50
2022-10-05T08:33:53.081Z,11.51
2022-10-05T08:36:07.640Z,11.52
2022-10-05T08:38:17.152Z,11.53
2022-10-05T08:40:50.791Z,11.51
2022-10-05T08:43:14.474Z,11.51
2022-10-05T08:45:46.441Z,11.48
2022-10-05T08:48:39.943Z,11.49
2022-10-05T08:51:18.064Z,11.48
2022-10-05T08:53:51.055Z,11.49
2022-10-05T08:56:11.250Z,11.51
2022-10-05T08:58:51.072Z,11.50
2022-10-05T09:01:03.442Z,11.54
2022-10-05T09:03:23.225Z,11.55
2022-10-05T09:06:06.059Z,11.56
2022-10-05T09:08:37.475Z,11.57
2022-10-05T09:11:07.493Z,11.57
2022-10-05T09:13:28.006Z,11.57
2022-10-05T09:16:05.710Z,11.59
2022-10-05T09:18:57.180Z,11.54
2022-10-05T09:21:07.384Z,11.53
2022-10-05T09:23:15.482Z,11.56
2022-10-05T09:25:25.225Z,11.59
2022-10-05T09:27:38.993Z,11.63
2022-10-05T09:30:16.985Z,11.64
2022-10-05T09:32:48.555Z,11.64
2022-10-05T09:35:06.710Z,11.59
2022-10-05T09:37:42.556Z,11.56
2022-10-05T09:40:24.618Z,11.56
2022-10-05T09:42:56.428Z,11.63
2022-10-05T09:45:29.200Z,11.69
2022-10-05T09:48:11.510Z,11.75
2022-10-05T09:50:55.535Z,11.78
2022-10-05T09:53:29.215Z,11.85
2022-10-05T09:56:07.616Z,11.91
2022-10-05T09:58:52.292Z,11.97
2022-10-05T10:01:32.673Z,12.14
2022-10-05T10:04:16.793Z,12.41
2022-10-05T10:06:46.709Z,12.66
2022-10-05T10:09:22.045Z,12.92
2022-10-05T10:11:42.224Z,13.05
2022-10-05T10:14:13.861Z,13.03
2022-10-05T10:16:35.364Z,12.98
2022-10-05T10:19:05.080Z,12.97
2022-10-05T10:21:35.330Z,12.97
2022-10-05T10:24:02.739Z,12.98
2022-10-05T10:26:47.932Z,13.02
2022-10-05T10:29:32.950Z,13.08
2022-10-05T10:31:55.939Z,13.00
2022-10-05T10:34:28.023Z,12.90
2022-10-05T10:36:52.200Z,12.88
2022-10-05T10:39:01.510Z,12.98
2022-10-05T10:41:36.525Z,13.13
2022-10-05T10:44:03.032Z,13.35
2022-10-05T10:46:20.331Z,13.55
2022-10-05T10:48:50.724Z,13.71
2022-10-05T10:51:15.997Z,13.79
2022-10-05T10:53:39.293Z,13.79
2022-10-05T10:55:54.168Z,13.77
2022-10-05T10:58:42.459Z,13.67
2022-10-05T11:00:55.112Z,13.64
2022-10-05T11:03:30.324Z,13.69
2022-10-05T11:05:47.924Z,13.64
2022-10-05T11:08:21.692Z,13.55
2022-10-05T11:11:01.994Z,13.66
2022-10-05T11:13:33.069Z,13.85
2022-10-05T11:16:12.402Z,14.01
2022-10-05T11:18:26.583Z,14.02
2022-10-05T11:21:06.287Z,14.06
2022-10-05T11:23:38.658Z,14.10
2022-10-05T11:26:16.041Z,14.13
2022-10-05T11:28:39.649Z,14.13
2022-10-05T11:31:09.688Z,14.02
2022-10-05T11:33:57.081Z,13.86
2022-10-05T11:36:27.782Z,13.78
2022-10-05T11:38:57.507Z,13.66
2022-10-05T11:41:33.050Z,13.56
2022-10-05T11:44:17.395Z,13.36
2022-10-05T11:46:27.171Z,13.17
2022-10-05T11:49:07.142Z,12.98
2022-10-05T11:51:29.212Z,12.86
2022-10-05T11:53:38.683Z,12.82
2022-10-05T11:55:46.877Z,12.78
2022-10-05T11:57:55.406Z,12.86
2022-10-05T12:00:09.306Z,12.98
2022-10-05T12:02:47.010Z,13.13
2022-10-05T12:04:59.059Z,13.26
2022-10-05T12:07:14.225Z,13.37
2022-10-05T12:09:34.910Z,13.42
2022-10-05T12:11:48.212Z,13.35
2022-10-05T12:13:59.275Z,13.26
2022-10-05T12:16:09.797Z,13.21
2022-10-05T12:18:19.169Z,13.18
2022-10-05T12:20:29.893Z,13.16
2022-10-05T12:22:41.134Z,13.10
2022-10-05T12:25:04.279Z,13.09
2022-10-05T12:27:14.478Z,13.08
2022-10-05T12:29:24.788Z,13.05
2022-10-05T12:31:37.720Z,13.03
2022-10-05T12:33:48.837Z,13.05
2022-10-05T12:35:58.319Z,13.06
2022-10-05T12:38:13.217Z,13.04
2022-10-05T12:40:26.446Z,13.03
2022-10-05T12:42:41.644Z,13.03
2022-10-05T12:45:09.609Z,12.99
2022-10-05T12:47:21.331Z,12.95
2022-10-05T12:50:03.433Z,12.97
2022-10-05T12:52:14.662Z,13.01
2022-10-05T12:54:30.352Z,12.98
2022-10-05T12:56:44.592Z,12.90
2022-10-05T12:58:55.006Z,12.81
2022-10-05T13:01:07.450Z,12.68
2022-10-05T13:03:20.046Z,12.29
2022-10-05T13:05:32.235Z,11.69
2022-10-05T13:08:13.779Z,10.97
2022-10-05T13:10:32.610Z,10.44
2022-10-05T13:12:48.165Z,10.24
2022-10-05T13:15:04.131Z,10.09
2022-10-05T13:17:13.760Z,10.01
2022-10-05T13:19:35.944Z,9.95
2022-10-05T13:21:57.426Z,9.96
2022-10-05T13:24:06.562Z,9.97
2022-10-05T13:26:17.944Z,9.94
2022-10-05T13:28:26.609Z,9.91
2022-10-05T13:30:31.260Z,9.86
2022-10-05T13:32:38.226Z,9.82
2022-10-05T13:34:49.721Z,9.75
2022-10-05T13:37:07.293Z,9.64
2022-10-05T13:39:23.009Z,9.51
2022-10-05T13:41:40.323Z,9.39
2022-10-05T13:43:50.890Z,9.36
2022-10-05T13:45:57.698Z,9.41
2022-10-05T13:48:15.348Z,9.49
2022-10-05T13:50:22.903Z,9.58
2022-10-05T13:52:39.090Z,9.67
2022-10-05T13:54:49.667Z,9.77
2022-10-05T13:56:59.911Z,9.89
2022-10-05T13:59:17.620Z,10.01
2022-10-05T14:01:32.224Z,10.10
2022-10-05T14:03:39.896Z,10.18
2022-10-05T14:05:56.689Z,10.27
2022-10-05T14:08:17.511Z,10.33
2022-10-05T14:10:37.788Z,10.40
2022-10-05T14:12:46.039Z,10.47
2022-10-05T14:14:51.946Z,10.55
2022-10-05T14:16:58.107Z,10.60
2022-10-05T14:19:18.810Z,10.66
2022-10-05T14:21:24.501Z,10.74
2022-10-05T14:23:28.882Z,10.80
2022-10-05T14:25:47.072Z,10.88
2022-10-05T14:27:56.498Z,10.96
2022-10-05T14:30:02.509Z,11.04
2022-10-05T14:32:16.354Z,11.08
2022-10-05T14:34:30.924Z,11.11
2022-10-05T14:36:40.653Z,11.17
2022-10-05T14:38:54.035Z,11.25
2022-10-05T14:41:15.985Z,11.37
2022-10-05T14:43:22.102Z,11.49
2022-10-05T14:45:30.146Z,11.59
2022-10-05T14:47:34.444Z,11.65
2022-10-05T14:50:10.916Z,11.70
2022-10-05T14:52:32.791Z,11.70
2022-10-05T14:54:48.350Z,11.71
2022-10-05T14:57:02.613Z,11.70
2022-10-05T14:59:39.709Z,11.64
2022-10-05T15:01:53.790Z,11.56
2022-10-05T15:04:10.279Z,11.49
2022-10-05T15:06:22.674Z,11.45
2022-10-05T15:08:46.681Z,11.40
2022-10-05T15:10:54.723Z,11.36
2022-10-05T15:13:11.244Z,11.34
2022-10-05T15:15:27.660Z,11.32
2022-10-05T15:17:37.841Z,11.31
2022-10-05T15:19:54.228Z,11.29
2022-10-05T15:22:25.770Z,11.23
2022-10-05T15:24:41.255Z,11.14
2022-10-05T15:26:51.898Z,11.09
2022-10-05T15:29:01.017Z,11.05
2022-10-05T15:31:12.930Z,11.00
2022-10-05T15:33:27.877Z,10.97
2022-10-05T15:36:00.836Z,10.99
2022-10-05T15:38:18.014Z,11.04
2022-10-05T15:40:28.258Z,11.10
2022-10-05T15:42:38.427Z,11.17
2022-10-05T15:44:52.466Z,11.21
2022-10-05T15:47:05.085Z,11.24
2022-10-05T15:49:21.778Z,11.25
2022-10-05T15:51:41.054Z,11.23
2022-10-05T15:53:48.450Z,11.23
2022-10-05T15:55:56.915Z,11.23
2022-10-05T15:58:31.523Z,11.21
2022-10-05T16:00:39.895Z,11.19
2022-10-05T16:02:52.751Z,11.20
2022-10-05T16:05:08.204Z,11.17
2022-10-05T16:07:36.087Z,11.19
2022-10-05T16:09:56.446Z,11.20
2022-10-05T16:12:11.838Z,11.21
2022-10-05T16:14:34.617Z,11.20
2022-10-05T16:16:47.403Z,11.17
2022-10-05T16:19:01.327Z,11.16
2022-10-05T16:21:19.256Z,11.13
2022-10-05T16:23:34.550Z,11.09
2022-10-05T16:25:52.609Z,11.05
2022-10-05T16:28:09.815Z,11.05
2022-10-05T16:30:18.286Z,11.01
2022-10-05T16:32:25.566Z,11.00
2022-10-05T16:34:45.692Z,10.97
2022-10-05T16:36:59.385Z,10.93
2022-10-05T16:39:08.645Z,10.92
2022-10-05T16:41:20.259Z,10.90
2022-10-05T16:43:33.857Z,10.88
2022-10-05T16:45:49.695Z,10.86
2022-10-05T16:48:02.314Z,10.84
2022-10-05T16:50:25.112Z,10.82
2022-10-05T16:52:29.690Z,10.81
2022-10-05T16:54:37.465Z,10.80
2022-10-05T16:56:45.022Z,10.81
2022-10-05T16:59:00.718Z,10.81
2022-10-05T17:01:15.261Z,10.82
2022-10-05T17:03:28.932Z,10.83
2022-10-05T17:05:47.886Z,10.84
2022-10-05T17:08:08.676Z,10.83
2022-10-05T17:10:47.364Z,10.83
2022-10-05T17:13:04.754Z,10.86
2022-10-05T17:15:32.230Z,10.87
2022-10-05T17:18:13.401Z,10.89
2022-10-05T17:20:32.190Z,10.91
2022-10-05T17:22:46.700Z,10.91
2022-10-05T17:25:00.165Z,10.90
2022-10-05T17:27:19.219Z,10.86
2022-10-05T17:29:30.527Z,10.82
2022-10-05T17:32:18.000Z,10.74
2022-10-05T17:34:29.601Z,10.69
2022-10-05T17:36:44.204Z,10.65
2022-10-05T17:38:52.602Z,10.60
2022-10-05T17:41:18.445Z,10.54
2022-10-05T17:43:27.418Z,10.50
2022-10-05T17:46:01.011Z,10.44
2022-10-05T17:48:05.556Z,10.39
2022-10-05T17:50:31.393Z,10.36
2022-10-05T17:52:52.367Z,10.31
2022-10-05T17:55:30.880Z,10.23
2022-10-05T17:57:36.967Z,10.20
2022-10-05T17:59:47.614Z,10.16
2022-10-05T18:02:17.358Z,10.11
2022-10-05T18:04:32.618Z,10.09
2022-10-05T18:06:38.191Z,10.06
2022-10-05T18:08:42.774Z,10.03
2022-10-05T18:11:17.353Z,9.99
2022-10-05T18:13:36.908Z,9.95
2022-10-05T18:15:46.346Z,9.92
2022-10-05T18:17:53.920Z,9.89
2022-10-05T18:20:18.899Z,9.89
2022-10-05T18:22:30.593Z,9.87
2022-10-05T18:24:56.293Z,9.86
2022-10-05T18:27:13.353Z,9.85
2022-10-05T18:29:53.253Z,9.84
2022-10-05T18:32:03.715Z,9.82
2022-10-05T18:34:30.767Z,9.78
2022-10-05T18:36:56.182Z,9.73
2022-10-05T18:39:08.208Z,9.72
2022-10-05T18:41:31.824Z,9.71
2022-10-05T18:43:42.180Z,9.72
2022-10-05T18:46:01.310Z,9.71
2022-10-05T18:48:18.723Z,9.69
2022-10-05T18:50:30.648Z,9.68
2022-10-05T18:52:46.381Z,9.67
2022-10-05T18:55:03.114Z,9.67
2022-10-05T18:57:37.479Z,9.67
2022-10-05T18:59:49.155Z,9.65
2022-10-05T19:02:04.076Z,9.65
2022-10-05T19:04:19.075Z,9.65
2022-10-05T19:06:26.998Z,9.66
2022-10-05T19:08:39.657Z,9.65
2022-10-05T19:10:46.475Z,9.64
2022-10-05T19:13:03.091Z,9.63
2022-10-05T19:15:16.126Z,9.64
2022-10-05T19:17:26.672Z,9.61
2022-10-05T19:19:46.733Z,9.60
2022-10-05T19:21:59.152Z,9.58
2022-10-05T19:24:43.419Z,9.58
2022-10-05T19:27:02.555Z,9.59
2022-10-05T19:29:16.445Z,9.58
2022-10-05T19:31:30.443Z,9.58
2022-10-05T19:33:47.661Z,9.57
2022-10-05T19:36:01.063Z,9.56
2022-10-05T19:38:15.535Z,9.54
2022-10-05T19:40:31.442Z,9.54
2022-10-05T19:42:51.151Z,9.53
2022-10-05T19:45:08.308Z,9.53
2022-10-05T19:47:25.028Z,9.52
2022-10-05T19:49:49.012Z,9.50
2022-10-05T19:51:53.029Z,9.48
2022-10-05T19:53:59.057Z,9.48
2022-10-05T19:56:18.257Z,9.48
2022-10-05T19:58:25.064Z,9.49
2022-10-05T20:00:31.817Z,9.49
2022-10-05T20:02:39.878Z,9.47
2022-10-05T20:04:49.665Z,9.46
2022-10-05T20:06:53.420Z,9.45
2022-10-05T20:09:00.324Z,9.44
2022-10-05T20:11:13.229Z,9.42
2022-10-05T20:13:21.543Z,9.42
2022-10-05T20:15:41.055Z,9.42
2022-10-05T20:18:01.692Z,9.42
2022-10-05T20:20:26.875Z,9.41
2022-10-05T20:22:34.602Z,9.43
2022-10-05T20:24:52.417Z,9.42
2022-10-05T20:27:02.764Z,9.41
2022-10-05T20:29:10.340Z,9.41
2022-10-05T20:31:14.788Z,9.39
2022-10-05T20:33:18.514Z,9.38
2022-10-05T20:35:23.204Z,9.36
2022-10-05T20:37:28.575Z,9.35
2022-10-05T20:39:32.885Z,9.34
2022-10-05T20:41:36.749Z,9.33
2022-10-05T20:43:40.905Z,9.30
2022-10-05T20:45:44.543Z,9.30
2022-10-05T20:47:49.065Z,9.29
2022-10-05T20:49:53.577Z,9.28
2022-10-05T20:51:57.324Z,9.28
2022-10-05T20:54:02.513Z,9.26
2022-10-05T20:56:06.696Z,9.24
2022-10-05T20:58:11.369Z,9.25
2022-10-05T21:00:15.816Z,9.24
2022-10-05T21:02:20.364Z,9.23
2022-10-05T21:04:25.844Z,9.24
2022-10-05T21:06:29.599Z,9.22
2022-10-05T21:08:34.145Z,9.22
2022-10-05T21:10:40.258Z,9.22
2022-10-05T21:12:43.865Z,9.23
2022-10-05T21:14:47.807Z,9.23
2022-10-05T21:16:52.747Z,9.23
2022-10-05T21:18:56.545Z,9.23
2022-10-05T21:21:02.393Z,9.22
2022-10-05T21:23:06.315Z,9.22
2022-10-05T21:25:10.963Z,9.23
2022-10-05T21:27:16.723Z,9.23
2022-10-05T21:29:20.201Z,9.23
2022-10-05T21:31:24.562Z,9.23
2022-10-05T21:33:28.480Z,9.22
2022-10-05T21:35:32.615Z,9.22
2022-10-05T21:37:36.277Z,9.21
2022-10-05T21:39:40.087Z,9.21
2022-10-05T21:41:43.852Z,9.17
2022-10-05T21:43:49.889Z,9.14
2022-10-05T21:45:55.501Z,9.13
2022-10-05T21:47:59.629Z,9.13
2022-10-05T21:50:05.599Z,9.13
2022-10-05T21:52:09.557Z,9.13
2022-10-05T21:54:15.515Z,9.13
2022-10-05T21:56:22.199Z,9.13
2022-10-05T21:58:28.374Z,9.12
2022-10-05T22:00:34.143Z,9.12
2022-10-05T22:02:37.948Z,9.11
2022-10-05T22:04:41.698Z,9.11
2022-10-05T22:06:45.284Z,9.13
2022-10-05T22:08:48.819Z,9.11
2022-10-05T22:10:54.930Z,9.11
2022-10-05T22:13:01.935Z,9.11
2022-10-05T22:15:07.634Z,9.08
2022-10-05T22:17:16.202Z,9.08
2022-10-05T22:19:21.808Z,9.08
2022-10-05T22:21:25.505Z,9.08
2022-10-05T22:23:29.498Z,9.08
2022-10-05T22:25:34.344Z,9.07
2022-10-05T22:27:38.239Z,9.08
2022-10-05T22:29:42.520Z,9.10
2022-10-05T22:31:49.016Z,9.10
2022-10-05T22:33:54.572Z,9.13
2022-10-05T22:36:00.478Z,9.14
2022-10-05T22:38:04.690Z,9.15
2022-10-05T22:40:11.641Z,9.14
2022-10-05T22:42:15.374Z,9.15
2022-10-05T22:44:18.910Z,9.13
2022-10-05T22:46:22.938Z,9.13
2022-10-05T22:48:27.121Z,9.12
2022-10-05T22:50:32.626Z,9.12
2022-10-05T22:52:36.322Z,9.11
2022-10-05T22:54:39.824Z,9.10
2022-10-05T22:56:43.311Z,9.11
2022-10-05T22:58:47.686Z,9.11
2022-10-05T23:00:58.440Z,9.10
2022-10-05T23:03:02.547Z,9.10
2022-10-05T23:05:07.119Z,9.12
2022-10-05T23:07:12.571Z,9.13
2022-10-05T23:09:16.120Z,9.12
2022-10-05T23:11:23.866Z,9.12
2022-10-05T23:13:27.617Z,9.12
2022-10-05T23:15:31.422Z,9.11
2022-10-05T23:17:36.975Z,9.10
2022-10-05T23:19:41.724Z,9.08
2022-10-05T23:21:45.383Z,9.07
2022-10-05T23:23:52.309Z,9.06
2022-10-05T23:26:00.862Z,9.05
2022-10-05T23:28:04.546Z,9.05
2022-10-05T23:30:09.896Z,9.03
2022-10-05T23:32:13.783Z,9.04
2022-10-05T23:34:17.336Z,9.04
2022-10-05T23:36:22.944Z,9.04
2022-10-05T23:38:27.232Z,9.05
2022-10-05T23:40:32.526Z,9.06
2022-10-05T23:42:36.785Z,9.08
2022-10-05T23:44:40.493Z,9.09
2022-10-05T23:46:44.293Z,9.11
2022-10-05T23:48:50.557Z,9.12
2022-10-05T23:50:56.079Z,9.14
2022-10-05T23:52:59.617Z,9.16
2022-10-05T23:55:03.562Z,9.14
2022-10-05T23:57:08.751Z,9.16
2022-10-05T23:59:12.564Z,9.16
